Niantic, Illinois
Current Conditions -  °F | °C
As of 1:54 AM on Tuesday 27 Jan 2015 (Local Time) from KDEC Reporting Station
Haze Haze  
Wind Chill: 30°   Ceiling: 1400
Heat Index: 34°   Visibility: 6mi
Dew Point: 33°   Wind: 5mph
Humidity: 96%   Direction: 300°WNW
Pressure: 29.91"   Gusts: NA
Location:  39.85°N, 89.17°W
Report Text: KDEC 270754Z AUTO 30004KT 6SM BR OVC014 01/01 A2991 RMK AO2 SLP134 I1002 T00110006 TSNO
Loading
Personal Weather Stations






























Interactive Weather Map New forecast layout! Learn more

10-Day Weather Forecast

Advertisements
Track Severe Weather on mobile